createdAt,value
2017-08-07T00:01:49.924Z,5.68
2017-08-07T00:05:07.714Z,6.60
2017-08-07T00:08:11.481Z,6.97
2017-08-07T00:11:17.167Z,7.82
2017-08-07T00:14:20.922Z,6.72
2017-08-07T00:17:27.367Z,6.85
2017-08-07T00:20:31.144Z,7.60
2017-08-07T00:23:36.820Z,6.40
2017-08-07T00:26:45.979Z,6.37
2017-08-07T00:29:50.651Z,7.32
2017-08-07T00:32:54.427Z,6.60
2017-08-07T00:35:59.092Z,5.90
2017-08-07T00:39:02.856Z,6.50
2017-08-07T00:42:08.953Z,6.03
2017-08-07T00:45:12.723Z,6.12
2017-08-07T00:48:26.534Z,6.40
2017-08-07T00:51:30.295Z,5.95
2017-08-07T00:54:36.646Z,4.68
2017-08-07T00:57:40.428Z,7.47
2017-08-07T01:00:46.434Z,6.10
2017-08-07T01:03:50.251Z,6.45
2017-08-07T01:06:54.978Z,5.97
2017-08-07T01:10:17.551Z,5.07
2017-08-07T01:13:21.242Z,6.00
2017-08-07T01:16:24.989Z,6.03
2017-08-07T01:19:29.745Z,6.22
2017-08-07T01:22:33.526Z,5.80
2017-08-07T01:25:38.195Z,6.35
2017-08-07T01:28:41.983Z,6.53
2017-08-07T01:35:29.725Z,5.80
2017-08-07T01:38:33.410Z,5.87
2017-08-07T01:41:44.786Z,7.15
2017-08-07T01:44:48.481Z,6.18
2017-08-07T01:47:53.297Z,7.25
2017-08-07T01:50:56.987Z,6.70
2017-08-07T01:54:00.812Z,6.65
2017-08-07T02:00:31.995Z,6.15
2017-08-07T02:03:42.052Z,6.70
2017-08-07T02:06:45.843Z,8.73
2017-08-07T02:09:49.524Z,6.93
2017-08-07T02:12:53.331Z,6.35
2017-08-07T02:15:58.069Z,6.68
2017-08-07T02:19:01.897Z,8.30
2017-08-07T02:25:38.164Z,6.70
2017-08-07T02:28:41.849Z,5.85
2017-08-07T02:31:47.629Z,7.55
2017-08-07T02:34:51.306Z,6.40
2017-08-07T02:37:56.048Z,6.70
2017-08-07T02:40:59.739Z,6.68
2017-08-07T02:44:07.205Z,8.00
2017-08-07T02:47:12.765Z,6.62
2017-08-07T02:50:19.119Z,6.55
2017-08-07T02:53:22.912Z,8.45
2017-08-07T02:56:27.701Z,6.87
2017-08-07T02:59:31.539Z,9.15
2017-08-07T03:02:35.331Z,7.15
2017-08-07T03:05:39.030Z,9.68
2017-08-07T03:08:47.653Z,7.18
2017-08-07T03:11:51.441Z,7.20
2017-08-07T03:15:00.744Z,8.15
2017-08-07T03:18:04.904Z,7.55
2017-08-07T03:21:08.599Z,8.70
2017-08-07T03:24:12.395Z,7.60
2017-08-07T03:27:17.027Z,6.32
2017-08-07T03:30:24.197Z,6.55
2017-08-07T03:33:29.873Z,6.50
2017-08-07T03:36:33.688Z,7.22
2017-08-07T03:39:37.782Z,7.78
2017-08-07T03:42:41.616Z,8.13
2017-08-07T03:45:45.307Z,6.32
2017-08-07T03:48:49.112Z,7.47
2017-08-07T03:55:29.816Z,7.97
2017-08-07T03:58:33.503Z,6.93
2017-08-07T04:01:37.322Z,6.82
2017-08-07T04:04:41.148Z,8.40
2017-08-07T04:07:44.838Z,7.20
2017-08-07T04:10:48.634Z,7.03
2017-08-07T04:13:58.882Z,5.12
2017-08-07T04:17:21.328Z,6.80
2017-08-07T04:20:28.719Z,7.57
2017-08-07T04:23:32.627Z,6.53
2017-08-07T04:26:37.358Z,6.97
2017-08-07T04:29:41.266Z,6.85
2017-08-07T04:32:49.176Z,6.22
2017-08-07T04:35:52.876Z,6.00
2017-08-07T04:39:00.882Z,5.12
2017-08-07T04:42:06.534Z,5.20
2017-08-07T04:45:10.442Z,5.80
2017-08-07T04:48:15.173Z,5.68
2017-08-07T04:51:19.188Z,6.72
2017-08-07T04:54:26.576Z,4.78
2017-08-07T04:57:30.588Z,4.22
2017-08-07T05:00:42.177Z,5.50
2017-08-07T05:03:46.087Z,4.95
2017-08-07T05:06:51.329Z,5.00
2017-08-07T05:09:55.033Z,5.30
2017-08-07T05:12:58.944Z,4.72
2017-08-07T05:16:02.752Z,5.32
2017-08-07T05:19:06.457Z,5.50
2017-08-07T05:22:30.744Z,4.28
2017-08-07T05:25:34.653Z,3.25
2017-08-07T05:28:40.406Z,5.43
2017-08-07T05:31:44.318Z,3.78
2017-08-07T05:34:54.167Z,6.22
2017-08-07T05:37:57.975Z,3.55
2017-08-07T05:41:03.829Z,3.05
2017-08-07T05:44:26.279Z,4.85
2017-08-07T05:47:30.081Z,4.37
2017-08-07T05:50:33.991Z,4.57
2017-08-07T05:53:44.148Z,5.05
2017-08-07T05:56:47.956Z,5.05
2017-08-07T05:59:52.786Z,4.28
2017-08-07T06:02:56.800Z,4.60
2017-08-07T06:06:04.395Z,5.50
2017-08-07T06:09:09.125Z,4.35
2017-08-07T06:12:14.980Z,5.68
2017-08-07T06:15:18.786Z,4.55
2017-08-07T06:18:23.517Z,5.00
2017-08-07T06:21:27.329Z,4.10
2017-08-07T06:24:33.181Z,4.37
2017-08-07T06:27:45.296Z,6.05
2017-08-07T06:30:49.090Z,3.30
2017-08-07T06:33:52.998Z,4.65
2017-08-07T06:36:56.806Z,3.95
2017-08-07T06:40:20.483Z,3.35
2017-08-07T06:43:24.186Z,3.10
2017-08-07T06:46:28.095Z,4.12
2017-08-07T06:49:39.377Z,4.05
2017-08-07T06:52:52.503Z,3.45
2017-08-07T06:55:56.311Z,4.82
2017-08-07T06:59:06.263Z,7.35
2017-08-07T07:02:12.017Z,3.83
2017-08-07T07:05:15.824Z,3.97
2017-08-07T07:08:21.476Z,5.25
2017-08-07T07:11:25.280Z,5.05
2017-08-07T07:14:30.938Z,6.72
2017-08-07T07:17:34.841Z,5.95
2017-08-07T07:20:51.041Z,3.62
2017-08-07T07:23:54.951Z,3.25
2017-08-07T07:26:58.656Z,3.95
2017-08-07T07:30:02.474Z,4.37
2017-08-07T07:33:07.193Z,3.42
2017-08-07T07:36:11.104Z,3.53
2017-08-07T07:39:19.826Z,4.15
2017-08-07T07:42:42.373Z,3.55
2017-08-07T07:45:48.333Z,3.47
2017-08-07T07:48:52.242Z,4.28
2017-08-07T07:51:57.890Z,3.50
2017-08-07T07:55:01.805Z,2.78
2017-08-07T07:58:05.713Z,3.37
2017-08-07T08:01:09.521Z,5.27
2017-08-07T08:04:15.581Z,3.10
2017-08-07T08:10:55.144Z,4.32
2017-08-07T08:13:59.057Z,3.67
2017-08-07T08:17:02.760Z,3.85
2017-08-07T08:20:06.668Z,5.22
2017-08-07T08:23:10.578Z,5.43
2017-08-07T08:26:16.435Z,2.35
2017-08-07T08:29:20.244Z,3.50
2017-08-07T08:32:24.254Z,3.62
2017-08-07T08:35:32.061Z,3.60
2017-08-07T08:38:36.069Z,2.70
2017-08-07T08:41:43.866Z,3.55
2017-08-07T08:44:47.778Z,3.22
2017-08-07T08:51:19.867Z,2.33
2017-08-07T08:54:23.673Z,4.62
2017-08-07T08:57:27.482Z,3.20
2017-08-07T09:00:37.847Z,5.20
2017-08-07T09:03:43.804Z,3.15
2017-08-07T09:06:47.916Z,3.60
2017-08-07T09:09:51.929Z,5.28
2017-08-07T09:12:55.838Z,3.42
2017-08-07T09:16:05.657Z,4.43
2017-08-07T09:19:09.701Z,4.18
2017-08-07T09:22:18.423Z,3.08
2017-08-07T09:25:22.333Z,3.78
2017-08-07T09:28:30.110Z,3.37
2017-08-07T09:31:33.942Z,4.12
2017-08-07T09:34:45.215Z,2.97
2017-08-07T09:37:49.134Z,3.37
2017-08-07T09:40:53.685Z,3.95
2017-08-07T09:43:58.813Z,3.28
2017-08-07T09:47:03.549Z,3.10
2017-08-07T09:50:08.324Z,3.70
2017-08-07T09:53:15.419Z,3.90
2017-08-07T09:56:20.389Z,3.55
2017-08-07T09:59:24.320Z,3.45
2017-08-07T10:02:28.416Z,3.08
2017-08-07T10:05:32.301Z,3.85
2017-08-07T10:08:35.720Z,3.40
2017-08-07T10:11:39.259Z,4.00
2017-08-07T10:14:43.061Z,2.72
2017-08-07T10:17:46.858Z,3.65
2017-08-07T10:20:50.550Z,3.12
2017-08-07T10:23:54.407Z,3.40
2017-08-07T10:26:57.848Z,2.63
2017-08-07T10:30:01.998Z,3.42
2017-08-07T10:33:06.015Z,3.30
2017-08-07T10:36:09.780Z,3.65
2017-08-07T10:39:13.479Z,3.62
2017-08-07T10:42:17.273Z,3.10
2017-08-07T10:45:28.474Z,2.50
2017-08-07T10:48:32.247Z,3.45
2017-08-07T10:51:36.024Z,3.83
2017-08-07T10:54:40.974Z,2.67
2017-08-07T10:57:44.771Z,3.05
2017-08-07T11:00:48.322Z,2.83
2017-08-07T11:03:52.264Z,3.05
2017-08-07T11:06:57.267Z,3.45
2017-08-07T11:10:01.069Z,4.60
2017-08-07T11:13:04.879Z,2.87
2017-08-07T11:16:08.568Z,4.35
2017-08-07T11:19:12.140Z,2.97
2017-08-07T11:22:15.559Z,2.17
2017-08-07T11:25:19.138Z,2.57
2017-08-07T11:28:24.256Z,3.50
2017-08-07T11:31:27.696Z,2.60
2017-08-07T11:34:31.542Z,4.77
2017-08-07T11:37:34.970Z,2.67
2017-08-07T11:40:38.647Z,3.10
2017-08-07T11:43:42.079Z,2.80
2017-08-07T11:46:45.615Z,3.10
2017-08-07T11:49:49.322Z,4.00
2017-08-07T11:52:52.874Z,2.90
2017-08-07T11:55:56.417Z,2.50
2017-08-07T11:58:59.849Z,3.20
2017-08-07T12:05:16.676Z,3.90
2017-08-07T12:08:20.099Z,2.80
2017-08-07T12:11:23.898Z,2.63
2017-08-07T12:14:27.320Z,3.70
2017-08-07T12:17:30.882Z,2.87
2017-08-07T12:20:34.326Z,2.77
2017-08-07T12:23:37.850Z,3.47
2017-08-07T12:26:42.482Z,2.93
2017-08-07T12:29:45.908Z,3.43
2017-08-07T12:32:49.688Z,3.30
2017-08-07T12:35:53.128Z,3.23
2017-08-07T12:39:00.242Z,3.60
2017-08-07T12:42:03.689Z,3.63
2017-08-07T12:45:07.168Z,2.60
2017-08-07T12:48:10.600Z,2.47
2017-08-07T12:51:14.120Z,3.27
2017-08-07T12:54:17.979Z,3.23
2017-08-07T12:57:21.546Z,2.87
2017-08-07T13:00:24.996Z,4.80
2017-08-07T13:03:28.516Z,3.27
2017-08-07T13:06:31.944Z,2.97
2017-08-07T13:09:35.490Z,3.57
2017-08-07T13:12:38.907Z,3.83
2017-08-07T13:15:42.419Z,2.20
2017-08-07T13:18:47.773Z,3.53
2017-08-07T13:21:51.276Z,5.13
2017-08-07T13:24:54.791Z,4.20
2017-08-07T13:27:58.342Z,2.60
2017-08-07T13:31:01.771Z,3.10
2017-08-07T13:34:05.286Z,4.10
2017-08-07T13:37:08.832Z,3.27
2017-08-07T13:40:12.257Z,3.70
2017-08-07T13:43:15.813Z,3.60
2017-08-07T13:46:19.245Z,3.50
2017-08-07T13:49:22.748Z,3.53
2017-08-07T13:52:26.446Z,4.20
2017-08-07T13:55:29.955Z,3.57
2017-08-07T13:58:33.391Z,3.67
2017-08-07T14:01:36.876Z,2.90
2017-08-07T14:04:40.306Z,3.50
2017-08-07T14:07:43.841Z,3.07
2017-08-07T14:10:47.344Z,3.67
2017-08-07T14:13:50.786Z,3.27
2017-08-07T14:16:54.339Z,3.73
2017-08-07T14:19:57.876Z,3.57
2017-08-07T14:23:01.425Z,2.93
2017-08-07T14:26:04.876Z,4.03
2017-08-07T14:29:08.525Z,3.13
2017-08-07T14:32:12.000Z,2.93
2017-08-07T14:35:15.508Z,2.60
2017-08-07T14:38:18.987Z,3.30
2017-08-07T14:41:22.544Z,3.40
2017-08-07T14:44:25.977Z,4.40
2017-08-07T14:47:30.551Z,3.80
2017-08-07T14:50:34.063Z,3.07
2017-08-07T14:53:38.587Z,2.70
2017-08-07T14:56:42.121Z,3.70
2017-08-07T14:59:45.658Z,4.70
2017-08-07T15:02:49.359Z,3.40
2017-08-07T15:05:52.824Z,3.27
2017-08-07T15:08:56.353Z,2.53
2017-08-07T15:11:59.927Z,3.37
2017-08-07T15:15:03.720Z,3.83
2017-08-07T15:18:07.287Z,3.43
2017-08-07T15:21:10.710Z,3.23
2017-08-07T15:24:14.393Z,3.30
2017-08-07T15:27:17.814Z,4.10
2017-08-07T15:30:21.382Z,3.60
2017-08-07T15:33:24.811Z,4.40
2017-08-07T15:36:28.373Z,3.60
2017-08-07T15:39:31.891Z,4.57
2017-08-07T15:42:35.394Z,4.17
2017-08-07T15:45:44.852Z,4.03
2017-08-07T15:48:48.351Z,9.57
2017-08-07T15:51:51.862Z,3.07
2017-08-07T15:54:55.376Z,4.70
2017-08-07T15:57:58.866Z,5.43
2017-08-07T16:01:02.455Z,4.17
2017-08-07T16:04:06.019Z,2.80
2017-08-07T16:07:10.606Z,2.97
2017-08-07T16:10:14.619Z,10.47
2017-08-07T16:13:18.222Z,4.20
2017-08-07T16:16:22.002Z,3.00
2017-08-07T16:19:25.447Z,11.83
2017-08-07T16:22:28.994Z,3.80
2017-08-07T16:25:33.125Z,4.63
2017-08-07T16:28:40.006Z,3.20
2017-08-07T16:31:43.504Z,3.50
2017-08-07T16:34:47.016Z,3.83
2017-08-07T16:37:50.494Z,8.40
2017-08-07T16:40:54.017Z,3.00
2017-08-07T16:43:57.604Z,3.80
2017-08-07T16:47:01.049Z,3.33
2017-08-07T16:50:04.678Z,3.03
2017-08-07T16:53:08.631Z,3.13
2017-08-07T16:56:12.171Z,2.87
2017-08-07T16:59:15.610Z,3.83
2017-08-07T17:02:19.154Z,3.17
2017-08-07T17:05:30.214Z,3.60
2017-08-07T17:08:33.771Z,2.97
2017-08-07T17:11:37.304Z,3.40
2017-08-07T17:14:49.115Z,3.43
2017-08-07T17:17:52.632Z,3.97
2017-08-07T17:20:56.498Z,3.67
2017-08-07T17:24:00.008Z,4.00
2017-08-07T17:27:09.694Z,3.87
2017-08-07T17:30:13.468Z,3.25
2017-08-07T17:33:23.075Z,3.80
2017-08-07T17:36:29.866Z,4.20
2017-08-07T17:39:35.677Z,3.65
2017-08-07T17:42:39.438Z,3.37
2017-08-07T17:45:43.122Z,4.25
2017-08-07T17:48:53.399Z,3.03
2017-08-07T17:51:57.098Z,3.35
2017-08-07T17:55:00.852Z,3.85
2017-08-07T17:58:23.656Z,3.10
2017-08-07T18:01:31.239Z,3.70
2017-08-07T18:04:35.003Z,4.22
2017-08-07T18:07:40.774Z,2.67
2017-08-07T18:10:44.461Z,4.32
2017-08-07T18:13:48.299Z,2.83
2017-08-07T18:16:52.017Z,3.03
2017-08-07T18:19:55.903Z,4.82
2017-08-07T18:22:59.575Z,3.75
2017-08-07T18:26:03.335Z,3.12
2017-08-07T18:29:07.109Z,4.87
2017-08-07T18:32:10.893Z,4.22
2017-08-07T18:35:14.587Z,5.20
2017-08-07T18:38:18.346Z,3.47
2017-08-07T18:41:22.279Z,3.30
2017-08-07T18:44:26.015Z,3.25
2017-08-07T18:47:29.702Z,2.92
2017-08-07T18:50:33.468Z,2.75
2017-08-07T18:53:37.532Z,4.47
2017-08-07T18:56:41.215Z,4.15
2017-08-07T18:59:44.993Z,3.42
2017-08-07T19:02:48.679Z,4.72
2017-08-07T19:05:52.425Z,4.28
2017-08-07T19:08:56.118Z,3.35
2017-08-07T19:11:59.895Z,4.30
2017-08-07T19:15:03.582Z,3.90
2017-08-07T19:18:07.322Z,3.53
2017-08-07T19:21:11.018Z,3.70
2017-08-07T19:24:15.022Z,3.55
2017-08-07T19:27:18.766Z,3.72
2017-08-07T19:30:22.467Z,4.53
2017-08-07T19:33:26.246Z,3.35
2017-08-07T19:36:29.985Z,3.15
2017-08-07T19:39:33.749Z,3.37
2017-08-07T19:42:37.483Z,4.50
2017-08-07T19:45:41.308Z,3.87
2017-08-07T19:48:44.998Z,3.80
2017-08-07T19:51:48.771Z,4.43
2017-08-07T19:54:52.464Z,4.37
2017-08-07T19:57:56.235Z,3.95
2017-08-07T20:00:59.915Z,5.12
2017-08-07T20:04:03.691Z,3.17
2017-08-07T20:07:10.447Z,5.47
2017-08-07T20:10:14.170Z,3.40
2017-08-07T20:13:17.918Z,3.85
2017-08-07T20:16:23.639Z,4.50
2017-08-07T20:19:27.385Z,4.45
2017-08-07T20:22:31.212Z,3.00
2017-08-07T20:25:34.904Z,2.97
2017-08-07T20:28:38.752Z,4.47
2017-08-07T20:31:43.426Z,3.72
2017-08-07T20:34:47.190Z,4.07
2017-08-07T20:37:50.864Z,5.00
2017-08-07T20:40:55.031Z,4.00
2017-08-07T20:43:58.747Z,4.00
2017-08-07T20:47:02.502Z,3.90
2017-08-07T20:50:07.375Z,4.75
2017-08-07T20:53:11.064Z,4.20
2017-08-07T20:56:14.870Z,4.12
2017-08-07T20:59:18.546Z,5.25
2017-08-07T21:02:22.294Z,3.37
2017-08-07T21:05:26.048Z,3.95
2017-08-07T21:08:30.124Z,4.53
2017-08-07T21:11:33.806Z,4.15
2017-08-07T21:14:37.559Z,3.45
2017-08-07T21:17:41.325Z,5.03
2017-08-07T21:20:45.091Z,4.20
2017-08-07T21:23:49.780Z,5.12
2017-08-07T21:40:53.635Z,4.47
2017-08-07T21:43:57.468Z,5.22
2017-08-07T21:47:01.145Z,4.65
2017-08-07T21:50:06.384Z,5.60
2017-08-07T22:03:37.501Z,4.25
2017-08-07T22:06:41.186Z,4.65
2017-08-07T22:09:45.017Z,3.42
2017-08-07T22:12:48.783Z,4.35
2017-08-07T22:15:52.954Z,5.68
2017-08-07T22:18:56.747Z,4.10
2017-08-07T22:22:00.787Z,4.30
2017-08-07T22:25:04.598Z,5.18
2017-08-07T22:28:08.403Z,3.90
2017-08-07T22:31:12.574Z,4.32
2017-08-07T22:34:16.326Z,4.75
2017-08-07T22:37:20.067Z,4.97
2017-08-07T22:40:23.894Z,3.92
2017-08-07T22:43:27.774Z,3.75
2017-08-07T22:46:31.651Z,3.92
2017-08-07T22:49:35.456Z,4.62
2017-08-07T22:52:39.265Z,4.12
2017-08-07T22:55:43.061Z,4.62
2017-08-07T22:58:47.161Z,4.05
2017-08-07T23:01:50.979Z,3.80
2017-08-07T23:04:54.834Z,4.15
2017-08-07T23:07:58.712Z,4.53
2017-08-07T23:11:02.527Z,5.85
2017-08-07T23:14:06.334Z,4.60
2017-08-07T23:17:10.131Z,3.35
2017-08-07T23:20:13.927Z,5.00
2017-08-07T23:23:17.723Z,3.55
2017-08-07T23:26:21.651Z,4.72
2017-08-07T23:29:25.446Z,5.65
2017-08-07T23:32:29.297Z,4.20
2017-08-07T23:35:32.975Z,4.82
2017-08-07T23:38:36.785Z,3.60
2017-08-07T23:41:40.575Z,4.10
2017-08-07T23:44:44.395Z,3.70
2017-08-07T23:47:48.250Z,4.30
2017-08-07T23:50:52.130Z,4.68
2017-08-07T23:53:56.215Z,4.15
2017-08-07T23:57:00.034Z,4.40
